Time;durP1;ratioP1;P1;durP2;ratioP2;P2;SDS_P1;SDS_P2;PMS_P1;PMS_P2;Temp;Humidity;BMP_temperature;BMP_pressure;BME280_temperature;BME280_humidity;BME280_pressure;Samples;Min_cycle;Max_cycle;Signal;HPM_P1;HPM_P2
2021/01/04 00:01:42;;;;;;;26.82;16.87;;;;;;;2.79;79.46;102234.80;1788210;78;20950;-73
2021/01/04 00:04:50;;;;;;;27.73;17.05;;;;;;;2.77;79.50;102238.68;1788228;78;20915;-77
2021/01/04 00:07:30;;;;;;;25.25;16.52;;;;;;;2.74;79.33;102232.22;1788287;78;21180;-74
2021/01/04 00:10:22;;;;;;;26.35;16.12;;;;;;;2.71;79.44;102232.20;1787836;78;20967;-75
2021/01/04 00:13:05;;;;;;;24.80;16.50;;;;;;;2.70;79.25;102228.76;1788041;78;21073;-76
2021/01/04 00:16:06;;;;;;;21.20;14.47;;;;;;;2.69;79.22;102231.34;1787926;78;20959;-75
2021/01/04 00:18:43;;;;;;;21.05;13.75;;;;;;;2.72;78.97;102235.68;1724565;82;20985;-75
2021/01/04 00:21:23;;;;;;;20.55;13.75;;;;;;;2.66;78.85;102224.88;1761275;80;21170;-73
2021/01/04 00:24:06;;;;;;;25.55;16.80;;;;;;;2.62;78.92;102221.45;1761042;79;21041;-74
2021/01/04 00:26:54;;;;;;;24.37;15.50;;;;;;;2.62;79.03;102219.27;1761118;80;20966;-74
2021/01/04 00:29:21;;;;;;;24.90;16.00;;;;;;;2.62;78.92;102214.09;1761054;80;20950;-74
2021/01/04 00:31:58;;;;;;;22.17;15.90;;;;;;;2.59;78.99;102222.73;1761233;80;20946;-73
2021/01/04 00:34:43;;;;;;;21.30;16.05;;;;;;;2.60;79.01;102218.41;1761265;80;20991;-77
2021/01/04 00:37:29;;;;;;;;;;;;;;;2.63;79.02;102215.84;1763762;80;21469;-75
2021/01/04 00:40:43;;;;;;;23.75;14.40;;;;;;;2.63;78.89;102210.22;1761113;80;20159;-75
2021/01/04 00:43:20;;;;;;;25.82;16.07;;;;;;;2.60;78.92;102213.23;1778876;78;21563;-75
2021/01/04 00:45:51;;;;;;;25.37;17.27;;;;;;;2.58;79.15;102205.48;1784983;79;20938;-77
2021/01/04 00:48:37;;;;;;;27.07;17.00;;;;;;;2.59;79.19;102203.31;1782605;79;21569;-75
2021/01/04 00:51:17;;;;;;;24.50;16.02;;;;;;;2.61;79.20;102201.58;1782530;79;21030;-76
2021/01/04 00:53:50;;;;;;;28.12;18.52;;;;;;;2.62;79.30;102202.44;1782614;79;20999;-77
2021/01/04 00:56:48;;;;;;;23.22;14.87;;;;;;;2.67;79.08;102195.55;1757532;78;21319;-76
2021/01/04 00:59:26;;;;;;;24.67;16.65;;;;;;;2.69;79.06;102193.78;1782131;79;21038;-77
2021/01/04 01:02:28;;;;;;;29.02;17.65;;;;;;;2.71;79.11;102193.35;1782145;79;21135;-76
2021/01/04 01:05:19;;;;;;;27.00;16.52;;;;;;;2.74;78.99;102190.77;1783393;79;21002;-75
2021/01/04 01:08:17;;;;;;;30.27;19.00;;;;;;;2.73;78.90;102186.44;1783215;79;21440;-75
2021/01/04 01:11:04;;;;;;;31.50;18.50;;;;;;;2.72;78.83;102191.21;1728896;81;20884;-77
2021/01/04 01:13:56;;;;;;;26.52;17.23;;;;;;;2.71;78.95;102186.88;1730545;81;20954;-76
2021/01/04 01:16:35;;;;;;;21.97;13.48;;;;;;;2.72;78.75;102192.50;1730426;81;21037;-73
2021/01/04 01:19:27;;;;;;;20.05;12.95;;;;;;;2.69;78.41;102200.27;1730129;81;21019;-73
2021/01/04 01:21:57;;;;;;;20.68;13.70;;;;;;;2.62;78.27;102203.73;1727983;81;20939;-75
2021/01/04 01:24:26;;;;;;;21.02;13.75;;;;;;;2.53;78.43;102194.25;1728996;81;21041;-75
2021/01/04 01:27:13;;;;;;;26.42;15.50;;;;;;;2.48;78.38;102199.43;1728983;81;21022;-75
2021/01/04 01:30:13;;;;;;;21.27;14.38;;;;;;;2.43;78.43;102195.14;1728698;81;21276;-75
2021/01/04 01:33:07;;;;;;;22.40;15.30;;;;;;;2.38;78.58;102196.84;1727555;81;21172;-76
2021/01/04 01:36:11;;;;;;;22.07;14.25;;;;;;;2.32;78.63;102196.88;1719972;81;20935;-74
2021/01/04 01:39:29;;;;;;;19.10;13.60;;;;;;;2.32;78.75;102190.41;1726812;81;21062;-75
2021/01/04 01:42:31;;;;;;;19.87;14.23;;;;;;;2.31;78.81;102181.75;1703687;81;20970;-74
2021/01/04 01:45:38;;;;;;;21.42;14.33;;;;;;;2.34;78.77;102179.62;1726930;81;21165;-75
2021/01/04 01:48:38;;;;;;;24.52;15.18;;;;;;;2.34;78.76;102175.73;1726531;81;21156;-74
2021/01/04 01:51:17;;;;;;;23.95;15.25;;;;;;;2.34;78.64;102174.44;1726630;81;21460;-76
2021/01/04 01:54:12;;;;;;;17.92;13.22;;;;;;;2.30;78.70;102178.75;1714535;81;21030;-75
2021/01/04 01:57:21;;;;;;;22.45;14.28;;;;;;;2.32;78.73;102172.28;1726985;81;20974;-74
2021/01/04 02:00:12;;;;;;;26.12;14.93;;;;;;;2.36;78.63;102177.89;1726819;81;21707;-75
2021/01/04 02:02:50;;;;;;;20.43;14.83;;;;;;;2.36;78.75;102183.07;1726691;81;20986;-75
2021/01/04 02:05:43;;;;;;;18.60;13.25;;;;;;;2.38;78.86;102180.91;1713193;81;21496;-75
2021/01/04 02:08:14;;;;;;;21.70;14.87;;;;;;;2.40;78.31;102184.36;1726717;82;20987;-76
2021/01/04 02:10:50;;;;;;;21.40;15.38;;;;;;;2.36;78.18;102181.34;1726819;81;21022;-76
2021/01/04 02:13:49;;;;;;;20.37;13.98;;;;;;;2.33;78.28;102186.94;1751697;81;21104;-75
2021/01/04 02:16:41;;;;;;;22.73;14.30;;;;;;;2.30;78.27;102186.95;1726684;81;20967;-75
2021/01/04 02:19:31;;;;;;;18.20;12.03;;;;;;;2.28;78.26;102189.53;1726396;81;20930;-77
2021/01/04 02:22:44;;;;;;;20.08;13.93;;;;;;;2.30;78.29;102192.98;1726673;81;20975;-76
2021/01/04 02:25:12;;;;;;;21.82;13.88;;;;;;;2.28;78.35;102183.05;1727371;81;21100;-76
2021/01/04 02:27:48;;;;;;;17.45;12.82;;;;;;;2.26;78.35;102184.78;1726749;81;20994;-75
2021/01/04 02:30:17;;;;;;;22.02;14.45;;;;;;;2.24;78.35;102185.20;1743624;82;21417;-78
2021/01/04 02:32:45;;;;;;;19.98;14.40;;;;;;;2.19;78.51;102189.09;1718956;82;21038;-75
2021/01/04 02:35:14;;;;;;;19.92;13.98;;;;;;;2.17;78.57;102197.73;1718912;82;21565;-76
2021/01/04 02:37:42;;;;;;;19.60;13.28;;;;;;;2.15;78.65;102196.42;1718851;82;21050;-76
2021/01/04 02:40:13;;;;;;;18.90;13.65;;;;;;;2.12;78.68;102196.88;1695451;82;22205;-77
2021/01/04 02:42:45;;;;;;;19.15;12.78;;;;;;;2.08;78.89;102192.97;1718953;82;21081;-76
2021/01/04 02:45:30;;;;;;;18.90;13.60;;;;;;;2.02;79.02;102195.58;1718880;82;21031;-77
2021/01/04 02:48:24;;;;;;;21.15;15.38;;;;;;;2.00;79.23;102201.17;1762406;80;21117;-76
2021/01/04 02:51:03;;;;;;;;;;;;;;;1.97;79.29;102193.83;1759657;81;21002;-77
2021/01/04 02:53:54;;;;;;;20.32;13.75;;;;;;;1.95;79.44;102199.43;1762700;80;20996;-76
2021/01/04 02:57:02;;;;;;;23.87;16.15;;;;;;;1.94;79.50;102201.59;1763174;80;21050;-74
2021/01/04 02:59:38;;;;;;;21.42;14.43;;;;;;;1.94;79.51;102208.92;1765753;77;21133;-77
2021/01/04 03:02:30;;;;;;;19.82;14.47;;;;;;;1.98;79.76;102217.53;1763848;80;20911;-75
2021/01/04 03:04:58;;;;;;;18.87;13.15;;;;;;;2.08;79.73;102211.52;1762762;80;20959;-75
2021/01/04 03:07:30;;;;;;;20.82;14.05;;;;;;;2.17;79.49;102205.05;1762568;80;21196;-76
2021/01/04 03:09:59;;;;;;;22.00;15.18;;;;;;;2.23;79.19;102206.80;1762429;80;20966;-75
2021/01/04 03:12:31;;;;;;;22.55;14.45;;;;;;;2.23;79.04;102187.38;1762380;80;20967;-75
2021/01/04 03:15:11;;;;;;;21.30;13.95;;;;;;;2.19;78.99;102181.77;1762385;80;20946;-75
2021/01/04 03:18:00;;;;;;;21.05;13.62;;;;;;;2.17;79.01;102184.78;1762499;80;21369;-75
2021/01/04 03:20:28;;;;;;;19.52;13.70;;;;;;;2.14;78.95;102197.30;1762463;80;21158;-75
2021/01/04 03:22:56;;;;;;;20.35;13.22;;;;;;;2.12;79.04;102209.81;1762451;80;21025;-75
2021/01/04 03:25:42;;;;;;;18.67;13.15;;;;;;;2.08;79.21;102205.05;1762459;80;21030;-76
2021/01/04 03:30:56;;;;;;;25.20;13.32;;;;;;;2.13;79.45;102205.05;1813622;79;22943;-74
2021/01/04 03:33:24;;;;;;;24.92;15.23;;;;;;;2.14;79.44;102199.89;1755706;80;21029;-74
2021/01/04 03:35:52;;;;;;;20.27;14.30;;;;;;;2.19;79.23;102205.06;1755762;80;22106;-73
2021/01/04 03:38:20;;;;;;;21.70;15.45;;;;;;;2.17;79.10;102209.37;1784161;79;20910;-75
2021/01/04 03:40:49;;;;;;;23.67;15.08;;;;;;;2.16;79.09;102212.39;1755451;80;20950;-76
2021/01/04 03:43:17;;;;;;;22.82;14.33;;;;;;;2.17;79.18;102208.94;1755480;80;20930;-76
2021/01/04 03:45:45;;;;;;;18.55;13.53;;;;;;;2.19;79.15;102202.47;1755618;80;21471;-76
2021/01/04 03:48:13;;;;;;;22.37;15.18;;;;;;;2.18;79.21;102193.86;1755558;80;21175;-76
2021/01/04 03:50:41;;;;;;;23.12;15.85;;;;;;;2.19;79.29;102193.41;1755498;80;20978;-76
2021/01/04 03:53:09;;;;;;;20.20;15.70;;;;;;;2.22;79.31;102195.99;1745321;81;21009;-76
2021/01/04 03:55:38;;;;;;;21.62;15.70;;;;;;;2.22;79.16;102195.99;1750431;81;20954;-77
2021/01/04 03:58:06;;;;;;;20.77;14.58;;;;;;;2.22;79.04;102196.88;1750425;80;21014;-77
2021/01/04 04:00:35;;;;;;;23.55;15.78;;;;;;;2.22;78.81;102192.11;1750449;81;21090;-76
2021/01/04 04:03:04;;;;;;;21.40;13.65;;;;;;;2.17;78.76;102183.05;1750370;80;21025;-76
2021/01/04 04:05:32;;;;;;;22.27;14.33;;;;;;;2.16;78.87;102185.66;1750382;81;21045;-78
2021/01/04 04:08:02;;;;;;;23.80;15.43;;;;;;;2.17;78.91;102195.14;1750421;81;20974;-77
2021/01/04 04:10:30;;;;;;;26.12;17.25;;;;;;;2.18;78.95;102192.56;1750394;81;20958;-77
2021/01/04 04:12:58;;;;;;;23.95;17.17;;;;;;;2.23;79.15;102193.41;1750350;81;21183;-77
2021/01/04 04:15:26;;;;;;;29.67;17.45;;;;;;;2.33;78.97;102203.77;1750360;81;20990;-77
2021/01/04 04:17:54;;;;;;;24.60;16.97;;;;;;;2.39;78.89;102203.77;1750401;81;21061;-77
2021/01/04 04:20:24;;;;;;;28.02;17.12;;;;;;;2.44;78.66;102213.23;1750416;81;21379;-77
2021/01/04 04:22:54;;;;;;;28.87;18.52;;;;;;;2.48;78.47;102213.67;1750493;80;21013;-76
2021/01/04 04:25:24;;;;;;;20.55;13.72;;;;;;;2.51;78.33;102210.22;1750310;81;21069;-76
2021/01/04 04:27:55;;;;;;;20.62;13.05;;;;;;;2.55;78.11;102202.87;1750379;80;21467;-76
2021/01/04 04:30:24;;;;;;;17.35;12.47;;;;;;;2.51;77.96;102187.34;1744982;81;21046;-77
2021/01/04 04:32:54;;;;;;;20.10;13.18;;;;;;;2.42;78.06;102188.22;1742636;82;21041;-77
2021/01/04 04:35:22;;;;;;;23.87;14.68;;;;;;;2.28;78.24;102187.80;1742710;81;21603;-77
2021/01/04 04:37:51;;;;;;;24.32;15.35;;;;;;;2.20;78.51;102199.01;1742664;82;20962;-77
2021/01/04 04:40:28;;;;;;;22.30;14.60;;;;;;;2.18;78.71;102213.67;1742540;81;20931;-77
2021/01/04 04:43:01;;;;;;;27.27;16.00;;;;;;;2.16;78.85;102212.39;1741960;82;21010;-79
2021/01/04 04:45:30;;;;;;;20.30;13.80;;;;;;;2.20;78.80;102202.89;1740939;82;20971;-75
2021/01/04 04:48:26;;;;;;;21.52;15.28;;;;;;;2.19;78.77;102199.89;1742271;82;20946;-77
2021/01/04 04:51:34;;;;;;;22.98;13.70;;;;;;;2.17;78.82;102211.96;1710354;82;21387;-76
2021/01/04 04:54:20;;;;;;;24.60;15.90;;;;;;;2.16;79.04;102217.57;1710474;82;21677;-76
2021/01/04 04:57:11;;;;;;;22.35;15.93;;;;;;;2.21;79.15;102221.02;1710513;82;20978;-77
2021/01/04 05:00:03;;;;;;;21.42;13.88;;;;;;;2.23;78.96;102208.94;1742459;81;21464;-79
2021/01/04 05:02:52;;;;;;;22.80;14.38;;;;;;;2.23;78.88;102213.27;1717077;82;21377;-78
2021/01/04 05:06:06;;;;;;;22.65;12.60;;;;;;;2.16;78.81;102216.28;1744954;81;21194;-75
2021/01/04 05:09:04;;;;;;;21.40;13.40;;;;;;;2.10;78.91;102203.77;1710175;82;21500;-75
2021/01/04 05:11:35;;;;;;;21.35;14.70;;;;;;;2.07;79.06;102196.43;1742160;81;21154;-76
2021/01/04 05:14:10;;;;;;;18.57;13.08;;;;;;;2.06;79.04;102202.89;1742142;80;21057;-77
2021/01/04 05:16:54;;;;;;;24.72;14.07;;;;;;;2.03;79.08;102209.37;1717507;82;21540;-78
2021/01/04 05:20:00;;;;;;;22.48;14.85;;;;;;;1.99;79.11;102215.39;1742072;81;21158;-78
2021/01/04 05:23:04;;;;;;;19.95;13.75;;;;;;;1.99;79.21;102208.92;1710147;82;21534;-76
2021/01/04 05:26:16;;;;;;;23.65;15.88;;;;;;;1.99;79.13;102215.39;1717343;82;21038;-76
2021/01/04 05:29:34;;;;;;;21.70;14.85;;;;;;;2.00;79.23;102220.58;1717292;81;21042;-77
2021/01/04 05:32:48;;;;;;;24.67;14.07;;;;;;;2.04;79.21;102213.23;1710473;82;21266;-78
2021/01/04 05:35:18;;;;;;;18.95;12.80;;;;;;;2.07;79.14;102204.20;1711360;82;21459;-75
2021/01/04 05:38:12;;;;;;;22.87;15.20;;;;;;;2.13;79.15;102194.70;1742051;81;21025;-75
2021/01/04 05:41:19;;;;;;;24.00;15.25;;;;;;;2.13;79.01;102186.50;1742028;81;20971;-75
2021/01/04 05:44:15;;;;;;;26.27;16.15;;;;;;;2.14;78.77;102186.95;1710322;82;21061;-77
2021/01/04 05:46:47;;;;;;;25.35;14.35;;;;;;;2.05;78.66;102190.39;1717452;82;20970;-76
2021/01/04 05:49:32;;;;;;;29.27;16.42;;;;;;;2.01;78.82;102197.71;1742086;81;20970;-77
2021/01/04 05:52:01;;;;;;;23.00;13.75;;;;;;;1.99;78.75;102197.28;1717299;82;20974;-74
2021/01/04 05:54:31;;;;;;;23.92;14.70;;;;;;;1.94;78.86;102203.75;1742110;81;20987;-75
2021/01/04 05:57:14;;;;;;;31.97;18.12;;;;;;;1.90;79.08;102186.93;1742117;81;21480;-75
2021/01/04 05:59:56;;;;;;;22.80;14.47;;;;;;;1.90;79.16;102195.98;1717272;82;21563;-74
2021/01/04 06:02:33;;;;;;;25.80;14.78;;;;;;;1.87;79.18;102187.80;1717180;82;21037;-75
2021/01/04 06:05:13;;;;;;;26.37;15.83;;;;;;;1.85;79.06;102194.25;1742103;81;21388;-75
2021/01/04 06:07:45;;;;;;;22.93;14.35;;;;;;;1.85;79.07;102188.22;1742227;82;21014;-75
2021/01/04 06:10:33;;;;;;;20.75;13.10;;;;;;;1.85;78.93;102183.91;1742089;81;21010;-75
2021/01/04 06:13:03;;;;;;;20.40;13.65;;;;;;;1.83;79.05;102181.73;1741157;81;21017;-76
2021/01/04 06:15:37;;;;;;;21.70;13.60;;;;;;;1.80;79.02;102182.16;1717834;82;21438;-74
2021/01/04 06:18:10;;;;;;;23.92;13.95;;;;;;;1.77;78.99;102191.22;1744828;82;21078;-74
2021/01/04 06:20:53;;;;;;;23.07;14.60;;;;;;;1.70;79.03;102190.34;1715585;82;20927;-74
2021/01/04 06:23:31;;;;;;;24.80;15.10;;;;;;;1.66;79.14;102195.06;1741930;82;21121;-75
2021/01/04 06:26:14;;;;;;;21.68;13.18;;;;;;;1.69;79.28;102199.37;1742030;81;21503;-75
2021/01/04 06:28:51;;;;;;;25.62;15.85;;;;;;;1.74;79.21;102211.91;1709766;82;22121;-75
2021/01/04 06:31:43;;;;;;;24.02;15.15;;;;;;;1.77;79.30;102205.44;1741979;81;20973;-75
2021/01/04 06:34:24;;;;;;;27.58;16.80;;;;;;;1.79;79.31;102211.04;1710571;82;20923;-76
2021/01/04 06:36:55;;;;;;;29.27;17.02;;;;;;;1.82;79.44;102203.71;1743494;82;20931;-76
2021/01/04 06:39:33;;;;;;;27.52;17.00;;;;;;;1.89;79.30;102200.70;1745871;79;21041;-75
2021/01/04 06:42:14;;;;;;;26.20;17.77;;;;;;;1.87;79.13;102195.55;1744536;82;21682;-75
2021/01/04 06:44:47;;;;;;;25.30;15.80;;;;;;;1.84;79.28;102195.53;1747483;82;21069;-76
2021/01/04 06:47:42;;;;;;;20.43;13.45;;;;;;;1.85;79.20;102186.48;1718643;81;21360;-76
2021/01/04 06:50:28;;;;;;;19.37;12.80;;;;;;;1.84;78.88;102195.53;1745324;82;21010;-76
2021/01/04 06:53:21;;;;;;;24.02;15.45;;;;;;;1.80;78.76;102193.39;1742368;82;20919;-79
2021/01/04 06:56:19;;;;;;;22.93;14.25;;;;;;;1.77;78.70;102191.22;1742042;82;21733;-76
2021/01/04 06:59:09;;;;;;;23.45;14.83;;;;;;;1.74;78.73;102189.92;1710074;82;20960;-76
2021/01/04 07:01:55;;;;;;;21.20;13.85;;;;;;;1.73;78.92;102187.75;1710283;82;20955;-76
2021/01/04 07:04:51;;;;;;;20.77;13.28;;;;;;;1.75;78.60;102181.30;1717160;82;21069;-74
2021/01/04 07:07:45;;;;;;;20.02;13.65;;;;;;;1.71;78.60;102180.84;1742057;81;20970;-76
2021/01/04 07:10:22;;;;;;;17.67;11.05;;;;;;;1.70;78.74;102176.12;1742043;81;21158;-76
2021/01/04 07:13:18;;;;;;;18.87;14.15;;;;;;;1.70;78.50;102182.58;1742080;81;20995;-79
2021/01/04 07:16:19;;;;;;;22.85;14.83;;;;;;;1.64;78.67;102187.73;1744780;80;21361;-89
2021/01/04 07:19:23;;;;;;;25.52;14.58;;;;;;;1.60;78.80;102185.59;1710242;82;20927;-84
2021/01/04 07:22:11;;;;;;;22.02;14.83;;;;;;;1.60;78.92;102182.11;1742135;82;21479;-82
2021/01/04 07:25:12;;;;;;;19.98;13.35;;;;;;;1.64;78.91;102179.97;1741721;81;22161;-83
2021/01/04 07:28:05;;;;;;;19.10;12.30;;;;;;;1.66;78.92;102175.23;1710309;82;21420;-81
2021/01/04 07:30:59;;;;;;;20.70;13.75;;;;;;;1.66;78.98;102170.50;1705803;83;21034;-78
2021/01/04 07:34:04;;;;;;;17.90;11.53;;;;;;;1.62;79.07;102170.95;1707683;83;20983;-77
2021/01/04 07:36:41;;;;;;;20.80;12.23;;;;;;;1.60;79.16;102173.95;1700908;83;21067;-81
2021/01/04 07:39:41;;;;;;;19.37;12.37;;;;;;;1.56;79.06;102179.97;1686801;83;21214;-81
2021/01/04 07:42:30;;;;;;;17.98;11.73;;;;;;;1.53;79.07;102182.53;1684831;83;20975;-80
2021/01/04 07:45:21;;;;;;;12.75;9.23;;;;;;;1.48;78.71;102181.66;1674109;83;21037;-81
2021/01/04 07:48:34;;;;;;;12.55;8.50;;;;;;;1.47;78.28;102177.37;1700941;83;20983;-80
2021/01/04 07:51:55;;;;;;;10.23;6.92;;;;;;;1.36;78.03;102170.87;1636360;86;21069;-80
2021/01/04 07:54:44;;;;;;;9.50;7.03;;;;;;;1.30;77.87;102185.48;1636435;86;21186;-82
2021/01/04 07:57:50;;;;;;;10.32;8.63;;;;;;;1.19;77.93;102172.52;1636359;86;21059;-82
2021/01/04 08:00:54;;;;;;;11.55;8.98;;;;;;;1.15;78.07;102174.22;1636577;86;20999;-79
2021/01/04 08:03:53;;;;;;;14.85;9.25;;;;;;;1.25;78.07;102175.14;1846064;76;22693;-79
2021/01/04 08:07:01;;;;;;;9.55;8.05;;;;;;;1.21;78.10;102172.95;1786322;79;21169;-79
2021/01/04 08:09:51;;;;;;;13.88;9.00;;;;;;;1.21;78.12;102169.08;1786266;79;21014;-79
2021/01/04 08:12:44;;;;;;;16.20;9.70;;;;;;;1.19;78.26;102160.89;1769101;79;21412;-79
2021/01/04 08:15:47;;;;;;;11.90;9.93;;;;;;;1.19;78.37;102163.48;1785800;79;21013;-82
2021/01/04 08:18:18;;;;;;;15.00;10.80;;;;;;;1.20;78.22;102161.31;1786382;79;21011;-80
2021/01/04 08:20:58;;;;;;;14.30;10.45;;;;;;;1.22;78.31;102155.73;1786233;79;21373;-80
2021/01/04 08:24:01;;;;;;;14.87;10.08;;;;;;;1.26;78.34;102155.31;1786161;79;22947;-78
2021/01/04 08:26:50;;;;;;;14.07;11.20;;;;;;;1.31;78.40;102161.36;1761458;79;20954;-79
2021/01/04 08:29:50;;;;;;;12.90;9.60;;;;;;;1.39;78.43;102160.96;1786182;79;20962;-79
2021/01/04 08:33:15;;;;;;;14.45;10.38;;;;;;;1.53;78.06;102177.80;1853329;76;24546;-79
2021/01/04 08:35:46;;;;;;;12.07;9.25;;;;;;;1.49;77.88;102178.64;1793476;78;21373;-80
2021/01/04 08:38:25;;;;;;;13.13;9.50;;;;;;;1.42;77.81;102179.05;1793457;78;21163;-79
2021/01/04 08:41:08;;;;;;;10.93;8.95;;;;;;;1.38;77.90;102174.32;1792855;78;20962;-78
2021/01/04 08:43:43;;;;;;;15.35;10.28;;;;;;;1.42;78.10;102178.65;1793646;78;21017;-78
2021/01/04 08:46:25;;;;;;;10.85;6.95;;;;;;;1.42;77.68;102180.34;1793382;78;21021;-80
2021/01/04 08:49:00;;;;;;;12.95;7.75;;;;;;;1.39;77.65;102171.30;1793613;78;26488;-80
2021/01/04 08:51:39;;;;;;;12.20;9.48;;;;;;;1.34;77.49;102170.00;1793831;78;20997;-78
2021/01/04 08:54:32;;;;;;;9.08;7.30;;;;;;;1.28;77.63;102162.66;1793481;78;20993;-79
2021/01/04 08:57:15;;;;;;;11.08;7.78;;;;;;;1.27;77.57;102163.48;1793538;78;21586;-78
2021/01/04 09:00:00;;;;;;;8.03;6.45;;;;;;;1.27;77.89;102164.78;1825801;78;20943;-79
2021/01/04 09:02:41;;;;;;;9.48;7.83;;;;;;;1.31;77.67;102162.65;1793029;78;21586;-77
2021/01/04 09:05:14;;;;;;;10.90;8.38;;;;;;;1.28;77.66;102160.92;1793347;78;21584;-78
2021/01/04 09:07:49;;;;;;;12.00;9.35;;;;;;;1.24;77.89;102156.19;1793322;78;20915;-80
2021/01/04 09:10:41;;;;;;;14.47;9.53;;;;;;;1.27;77.92;102160.91;1820628;78;21495;-82
2021/01/04 09:13:32;;;;;;;14.73;9.83;;;;;;;1.26;77.92;102157.47;1825459;78;20974;-82
2021/01/04 09:16:25;;;;;;;12.58;8.53;;;;;;;1.28;78.01;102154.90;1793455;78;20907;-78
2021/01/04 09:19:15;;;;;;;14.68;11.28;;;;;;;1.32;78.06;102140.70;1793307;78;21926;-77
2021/01/04 09:21:45;;;;;;;14.30;11.18;;;;;;;1.38;77.98;102139.43;1793113;78;21507;-78
2021/01/04 09:24:29;;;;;;;16.37;12.70;;;;;;;1.44;77.94;102132.10;1793329;78;21005;-77
2021/01/04 09:27:00;;;;;;;16.75;11.97;;;;;;;1.48;78.02;102134.28;1793250;78;20971;-79
2021/01/04 09:29:41;;;;;;;16.42;11.28;;;;;;;1.52;77.82;102126.53;1793320;78;21025;-80
2021/01/04 09:32:16;;;;;;;16.52;11.08;;;;;;;1.53;77.52;102122.21;1825763;78;21424;-81
2021/01/04 09:34:46;;;;;;;13.88;10.30;;;;;;;1.51;77.58;102123.93;1793254;78;20966;-77
2021/01/04 09:37:26;;;;;;;16.45;11.73;;;;;;;1.55;77.60;102125.66;1825428;78;20922;-79
2021/01/04 09:40:03;;;;;;;16.70;11.53;;;;;;;1.61;77.78;102132.14;1793538;78;21488;-77
2021/01/04 09:42:34;;;;;;;16.17;10.78;;;;;;;1.68;77.50;102130.43;1792647;78;21041;-83
2021/01/04 09:45:17;;;;;;;13.83;9.20;;;;;;;1.69;77.31;102116.22;1792958;78;21172;-77
2021/01/04 09:47:53;;;;;;;18.55;11.68;;;;;;;1.74;76.99;102116.22;1824891;78;20962;-77
2021/01/04 09:50:46;;;;;;;16.48;11.68;;;;;;;1.69;77.01;102102.41;1793260;78;20950;-80
2021/01/04 09:53:31;;;;;;;17.80;12.70;;;;;;;1.67;77.09;102106.30;1792596;78;20934;-79
2021/01/04 09:56:06;;;;;;;;;;;;;;;1.67;77.24;102098.55;1795534;78;20910;-82
2021/01/04 09:58:36;;;;;;;20.25;13.28;;;;;;;1.71;77.35;102094.22;1792812;78;21106;-80
2021/01/04 10:01:17;;;;;;;19.85;13.32;;;;;;;1.72;77.19;102083.89;1824885;78;20914;-76
2021/01/04 10:04:00;;;;;;;17.98;12.37;;;;;;;1.71;77.14;102076.97;1792968;78;21502;-76
2021/01/04 10:06:33;;;;;;;18.57;12.73;;;;;;;1.68;77.05;102067.94;1792960;78;26506;-75
2021/01/04 10:09:06;;;;;;;22.05;15.10;;;;;;;1.66;77.22;102083.88;1793012;78;21081;-75
2021/01/04 10:11:34;;;;;;;16.65;12.85;;;;;;;1.64;77.20;102079.98;1763436;78;21143;-77
2021/01/04 10:14:07;;;;;;;15.85;12.43;;;;;;;1.69;77.00;102089.48;1793700;78;20994;-74
2021/01/04 10:16:35;;;;;;;15.85;11.70;;;;;;;1.72;77.04;102091.64;1795466;78;20950;-78
2021/01/04 10:19:24;;;;;;;18.48;12.53;;;;;;;1.73;76.73;102093.36;1795451;78;20958;-80
2021/01/04 10:22:00;;;;;;;16.67;12.37;;;;;;;1.72;76.68;102090.79;1793694;78;21029;-79
2021/01/04 10:24:40;;;;;;;13.70;10.35;;;;;;;1.72;76.60;102090.79;1793598;78;21164;-79
2021/01/04 10:27:09;;;;;;;15.58;12.05;;;;;;;1.72;76.46;102085.62;1792767;78;21037;-82
2021/01/04 10:29:50;;;;;;;19.80;11.95;;;;;;;1.69;76.38;102076.55;1790413;78;20898;-79
2021/01/04 10:32:38;;;;;;;15.40;11.90;;;;;;;1.71;76.40;102080.00;1776943;79;21008;-81
2021/01/04 10:35:25;;;;;;;14.63;9.83;;;;;;;1.74;76.22;102080.02;1769336;79;21017;-81
2021/01/04 10:38:13;;;;;;;16.40;11.63;;;;;;;1.71;76.27;102077.41;1766925;79;20942;-78
2021/01/04 10:40:49;;;;;;;17.57;13.60;;;;;;;1.68;76.38;102083.89;1767740;79;20954;-78
2021/01/04 10:43:29;;;;;;;20.35;14.28;;;;;;;1.68;76.47;102083.89;1769034;79;20966;-78
2021/01/04 10:45:59;;;;;;;19.23;13.85;;;;;;;1.70;76.59;102077.84;1767874;77;21014;-80
2021/01/04 10:48:35;;;;;;;;;;;;;;;1.78;76.26;102076.14;1771789;79;21321;-81
2021/01/04 10:51:03;;;;;;;19.07;12.88;;;;;;;1.79;76.29;102072.67;1768833;79;20907;-76
2021/01/04 10:53:39;;;;;;;21.48;12.78;;;;;;;1.83;76.18;102071.81;1720531;79;21034;-76
2021/01/04 10:56:19;;;;;;;18.20;13.18;;;;;;;1.84;76.13;102078.70;1768935;79;20926;-78
2021/01/04 10:58:57;;;;;;;19.32;13.80;;;;;;;1.83;76.22;102064.50;1798057;78;20946;-81
2021/01/04 11:01:33;;;;;;;22.13;15.43;;;;;;;1.86;76.33;102061.89;1768730;79;20932;-79
2021/01/04 11:04:15;;;;;;;23.25;14.90;;;;;;;1.91;76.15;102059.30;1768967;79;21774;-80
2021/01/04 11:06:48;;;;;;;18.82;13.72;;;;;;;1.92;75.99;102053.28;1768841;77;21017;-79
2021/01/04 11:09:29;;;;;;;15.20;11.28;;;;;;;1.95;75.89;102051.97;1766092;79;21017;-78
2021/01/04 11:12:13;;;;;;;16.87;12.58;;;;;;;1.98;75.35;102046.78;1798097;79;21404;-82
2021/01/04 11:14:55;;;;;;;17.95;12.43;;;;;;;1.94;75.44;102047.23;1768974;79;20970;-84
2021/01/04 11:17:41;;;;;;;20.30;14.05;;;;;;;1.95;75.31;102049.39;1769897;79;22518;-78
2021/01/04 11:20:15;;;;;;;17.77;13.40;;;;;;;1.94;75.45;102052.85;1769092;79;21053;-81
2021/01/04 11:22:43;;;;;;;40.78;29.72;;;;;;;1.91;75.35;102048.52;1768064;79;21498;-80
2021/01/04 11:25:12;;;;;;;18.00;12.55;;;;;;;1.88;75.55;102047.67;1769570;79;20982;-78
2021/01/04 11:27:45;;;;;;;16.30;12.35;;;;;;;1.89;75.68;102045.09;1769827;79;20947;-78
2021/01/04 11:30:15;;;;;;;20.00;11.88;;;;;;;1.93;75.54;102040.77;1769663;79;21180;-78
2021/01/04 11:32:43;;;;;;;12.68;10.95;;;;;;;1.92;75.67;102036.03;1760677;79;21081;-78
2021/01/04 11:35:12;;;;;;;21.10;12.68;;;;;;;1.95;75.28;102039.04;1757848;80;21018;-77
2021/01/04 11:37:42;;;;;;;16.80;12.40;;;;;;;1.93;75.48;102039.03;1757791;80;20963;-77
2021/01/04 11:40:16;;;;;;;14.93;12.15;;;;;;;1.95;75.41;102045.06;1757986;80;20974;-74
2021/01/04 11:42:44;;;;;;;17.15;12.55;;;;;;;1.93;75.13;102045.94;1757914;79;22627;-78
2021/01/04 11:45:51;;;;;;;13.98;10.43;;;;;;;1.90;75.32;102036.91;1757820;80;20919;-77
2021/01/04 11:48:24;;;;;;;14.80;10.45;;;;;;;1.90;75.32;102036.46;1754993;80;20915;-78
2021/01/04 11:50:52;;;;;;;14.78;11.10;;;;;;;1.89;75.46;102033.86;1757764;80;21001;-76
2021/01/04 11:53:20;;;;;;;16.12;12.00;;;;;;;1.90;75.46;102022.23;1757715;80;21178;-77
2021/01/04 11:55:48;;;;;;;17.82;13.05;;;;;;;1.92;75.43;102026.98;1757801;80;21025;-76
2021/01/04 11:58:16;;;;;;;24.75;15.85;;;;;;;1.93;75.51;102023.51;1757660;80;20955;-76
2021/01/04 12:00:44;;;;;;;21.77;14.07;;;;;;;1.96;75.49;102029.14;1757767;80;21034;-76
2021/01/04 12:03:12;;;;;;;20.27;13.95;;;;;;;1.99;75.61;102026.53;1757748;80;21005;-78
2021/01/04 12:05:41;;;;;;;17.87;12.88;;;;;;;2.03;75.38;102032.14;1757951;80;20983;-75
2021/01/04 12:08:09;;;;;;;19.65;14.10;;;;;;;2.01;75.36;102025.66;1758152;80;22181;-74
2021/01/04 12:10:37;;;;;;;18.40;14.15;;;;;;;1.97;75.60;102025.67;1757735;80;20942;-75
2021/01/04 12:13:09;;;;;;;19.12;13.80;;;;;;;1.95;75.88;102012.73;1757869;80;20903;-75
2021/01/04 12:15:35;;;;;;;18.60;14.85;;;;;;;1.99;75.91;102007.98;1757950;80;20959;-73
2021/01/04 12:18:03;;;;;;;20.65;15.93;;;;;;;1.98;75.78;102001.51;1758265;80;21334;-76
2021/01/04 12:20:36;;;;;;;23.10;16.73;;;;;;;1.95;75.89;102002.38;1758422;80;21586;-74
2021/01/04 12:23:05;;;;;;;25.62;17.02;;;;;;;1.94;75.98;102004.55;1757825;80;20955;-73
2021/01/04 12:25:33;;;;;;;34.70;22.82;;;;;;;2.01;76.02;102012.73;1757746;80;21003;-74
2021/01/04 12:28:01;;;;;;;22.77;16.48;;;;;;;2.06;75.83;102008.39;1757907;80;21006;-77
2021/01/04 12:30:29;;;;;;;20.43;14.30;;;;;;;2.11;75.82;102004.94;1757752;80;21041;-75